sensor_id;sensor_type;location;lat;lon;timestamp;P1;durP1;ratioP1;P2;durP2;ratioP2
5460;SDS011;2753;49.196;8.286;2023-05-17T00:01:32;3.97;;;1.90;;
5460;SDS011;2753;49.196;8.286;2023-05-17T00:03:57;6.20;;;1.67;;
5460;SDS011;2753;49.196;8.286;2023-05-17T00:06:23;3.33;;;1.67;;
5460;SDS011;2753;49.196;8.286;2023-05-17T00:08:49;4.63;;;2.00;;
5460;SDS011;2753;49.196;8.286;2023-05-17T00:11:14;6.30;;;2.00;;
5460;SDS011;2753;49.196;8.286;2023-05-17T00:13:40;2.43;;;1.80;;
5460;SDS011;2753;49.196;8.286;2023-05-17T00:16:06;5.03;;;1.83;;
5460;SDS011;2753;49.196;8.286;2023-05-17T00:18:32;7.73;;;1.87;;
5460;SDS011;2753;49.196;8.286;2023-05-17T00:20:58;3.67;;;2.00;;
5460;SDS011;2753;49.196;8.286;2023-05-17T00:23:23;11.17;;;2.40;;
5460;SDS011;2753;49.196;8.286;2023-05-17T00:25:49;5.67;;;2.30;;
5460;SDS011;2753;49.196;8.286;2023-05-17T00:28:15;8.40;;;2.30;;
5460;SDS011;2753;49.196;8.286;2023-05-17T00:30:41;2.10;;;1.90;;
5460;SDS011;2753;49.196;8.286;2023-05-17T00:33:06;2.23;;;1.70;;
5460;SDS011;2753;49.196;8.286;2023-05-17T00:35:32;6.60;;;1.60;;
5460;SDS011;2753;49.196;8.286;2023-05-17T00:37:58;8.13;;;2.27;;
5460;SDS011;2753;49.196;8.286;2023-05-17T00:40:24;5.83;;;2.00;;
5460;SDS011;2753;49.196;8.286;2023-05-17T00:42:49;4.30;;;1.90;;
5460;SDS011;2753;49.196;8.286;2023-05-17T00:45:15;5.10;;;2.10;;
5460;SDS011;2753;49.196;8.286;2023-05-17T00:47:41;8.40;;;2.17;;
5460;SDS011;2753;49.196;8.286;2023-05-17T00:50:07;3.43;;;2.03;;
5460;SDS011;2753;49.196;8.286;2023-05-17T00:52:33;5.23;;;2.33;;
5460;SDS011;2753;49.196;8.286;2023-05-17T00:55:00;3.07;;;1.87;;
5460;SDS011;2753;49.196;8.286;2023-05-17T00:57:26;5.60;;;1.67;;
5460;SDS011;2753;49.196;8.286;2023-05-17T00:59:53;6.53;;;2.17;;
5460;SDS011;2753;49.196;8.286;2023-05-17T01:02:20;6.03;;;2.20;;
5460;SDS011;2753;49.196;8.286;2023-05-17T01:04:46;3.13;;;2.10;;
5460;SDS011;2753;49.196;8.286;2023-05-17T01:07:13;5.23;;;2.10;;
5460;SDS011;2753;49.196;8.286;2023-05-17T01:09:38;5.60;;;1.77;;
5460;SDS011;2753;49.196;8.286;2023-05-17T01:12:17;4.90;;;2.10;;
5460;SDS011;2753;49.196;8.286;2023-05-17T01:20:13;5.50;;;2.40;;
5460;SDS011;2753;49.196;8.286;2023-05-17T01:22:52;8.97;;;2.40;;
5460;SDS011;2753;49.196;8.286;2023-05-17T01:28:15;9.77;;;2.00;;
5460;SDS011;2753;49.196;8.286;2023-05-17T01:30:43;7.40;;;2.50;;
5460;SDS011;2753;49.196;8.286;2023-05-17T01:33:11;7.03;;;2.73;;
5460;SDS011;2753;49.196;8.286;2023-05-17T01:35:37;5.87;;;2.17;;
5460;SDS011;2753;49.196;8.286;2023-05-17T01:38:02;7.23;;;2.33;;
5460;SDS011;2753;49.196;8.286;2023-05-17T01:40:29;5.03;;;1.90;;
5460;SDS011;2753;49.196;8.286;2023-05-17T01:46:00;5.33;;;2.90;;
5460;SDS011;2753;49.196;8.286;2023-05-17T01:48:38;5.13;;;1.90;;
5460;SDS011;2753;49.196;8.286;2023-05-17T01:51:08;3.40;;;2.50;;
5460;SDS011;2753;49.196;8.286;2023-05-17T01:53:38;4.10;;;2.10;;
5460;SDS011;2753;49.196;8.286;2023-05-17T01:56:12;7.00;;;2.10;;
5460;SDS011;2753;49.196;8.286;2023-05-17T01:58:47;5.40;;;2.10;;
5460;SDS011;2753;49.196;8.286;2023-05-17T02:01:13;4.50;;;2.57;;
5460;SDS011;2753;49.196;8.286;2023-05-17T02:03:40;4.60;;;2.00;;
5460;SDS011;2753;49.196;8.286;2023-05-17T02:06:06;10.50;;;2.80;;
5460;SDS011;2753;49.196;8.286;2023-05-17T02:08:32;7.07;;;2.80;;
5460;SDS011;2753;49.196;8.286;2023-05-17T02:10:58;9.23;;;2.33;;
5460;SDS011;2753;49.196;8.286;2023-05-17T02:13:23;3.47;;;2.20;;
5460;SDS011;2753;49.196;8.286;2023-05-17T02:15:49;6.40;;;2.47;;
5460;SDS011;2753;49.196;8.286;2023-05-17T02:18:15;7.83;;;2.20;;
5460;SDS011;2753;49.196;8.286;2023-05-17T02:20:41;9.77;;;2.47;;
5460;SDS011;2753;49.196;8.286;2023-05-17T02:23:07;5.23;;;2.93;;
5460;SDS011;2753;49.196;8.286;2023-05-17T02:25:32;9.93;;;2.70;;
5460;SDS011;2753;49.196;8.286;2023-05-17T02:27:58;5.90;;;2.30;;
5460;SDS011;2753;49.196;8.286;2023-05-17T02:30:24;5.03;;;2.33;;
5460;SDS011;2753;49.196;8.286;2023-05-17T02:32:50;3.27;;;2.77;;
5460;SDS011;2753;49.196;8.286;2023-05-17T02:35:16;11.53;;;2.70;;
5460;SDS011;2753;49.196;8.286;2023-05-17T02:37:41;5.93;;;2.40;;
5460;SDS011;2753;49.196;8.286;2023-05-17T02:40:07;6.03;;;2.50;;
5460;SDS011;2753;49.196;8.286;2023-05-17T02:42:34;5.80;;;2.73;;
5460;SDS011;2753;49.196;8.286;2023-05-17T02:45:01;6.40;;;2.40;;
5460;SDS011;2753;49.196;8.286;2023-05-17T02:47:26;16.17;;;3.10;;
5460;SDS011;2753;49.196;8.286;2023-05-17T02:49:52;10.97;;;2.70;;
5460;SDS011;2753;49.196;8.286;2023-05-17T02:52:18;10.70;;;2.60;;
5460;SDS011;2753;49.196;8.286;2023-05-17T02:54:43;7.47;;;2.60;;
5460;SDS011;2753;49.196;8.286;2023-05-17T02:57:09;7.00;;;2.67;;
5460;SDS011;2753;49.196;8.286;2023-05-17T02:59:35;8.30;;;3.20;;
5460;SDS011;2753;49.196;8.286;2023-05-17T03:02:01;5.73;;;3.27;;
5460;SDS011;2753;49.196;8.286;2023-05-17T03:04:27;4.33;;;2.37;;
5460;SDS011;2753;49.196;8.286;2023-05-17T03:06:52;8.37;;;2.93;;
5460;SDS011;2753;49.196;8.286;2023-05-17T03:09:19;7.07;;;3.00;;
5460;SDS011;2753;49.196;8.286;2023-05-17T03:11:45;6.73;;;2.53;;
5460;SDS011;2753;49.196;8.286;2023-05-17T03:14:11;5.23;;;2.93;;
5460;SDS011;2753;49.196;8.286;2023-05-17T03:16:37;5.23;;;2.77;;
5460;SDS011;2753;49.196;8.286;2023-05-17T03:19:03;9.50;;;3.40;;
5460;SDS011;2753;49.196;8.286;2023-05-17T03:21:29;7.33;;;2.50;;
5460;SDS011;2753;49.196;8.286;2023-05-17T03:23:54;8.33;;;3.10;;
5460;SDS011;2753;49.196;8.286;2023-05-17T03:26:20;5.07;;;3.07;;
5460;SDS011;2753;49.196;8.286;2023-05-17T03:28:47;6.37;;;3.20;;
5460;SDS011;2753;49.196;8.286;2023-05-17T03:31:13;4.80;;;2.93;;
5460;SDS011;2753;49.196;8.286;2023-05-17T03:33:39;9.97;;;3.40;;
5460;SDS011;2753;49.196;8.286;2023-05-17T03:36:05;4.03;;;3.20;;
5460;SDS011;2753;49.196;8.286;2023-05-17T03:38:31;8.43;;;3.07;;
5460;SDS011;2753;49.196;8.286;2023-05-17T03:40:57;6.73;;;2.90;;
5460;SDS011;2753;49.196;8.286;2023-05-17T03:43:22;10.77;;;2.80;;
5460;SDS011;2753;49.196;8.286;2023-05-17T03:45:48;5.47;;;2.80;;
5460;SDS011;2753;49.196;8.286;2023-05-17T03:48:14;9.60;;;3.27;;
5460;SDS011;2753;49.196;8.286;2023-05-17T03:50:40;3.70;;;2.40;;
5460;SDS011;2753;49.196;8.286;2023-05-17T03:53:06;6.73;;;3.07;;
5460;SDS011;2753;49.196;8.286;2023-05-17T03:55:31;4.93;;;2.50;;
5460;SDS011;2753;49.196;8.286;2023-05-17T03:57:57;4.63;;;2.90;;
5460;SDS011;2753;49.196;8.286;2023-05-17T04:00:23;8.47;;;3.33;;
5460;SDS011;2753;49.196;8.286;2023-05-17T04:02:49;5.87;;;3.30;;
5460;SDS011;2753;49.196;8.286;2023-05-17T04:05:15;7.80;;;3.30;;
5460;SDS011;2753;49.196;8.286;2023-05-17T04:07:41;10.13;;;3.37;;
5460;SDS011;2753;49.196;8.286;2023-05-17T04:10:07;5.23;;;2.50;;
5460;SDS011;2753;49.196;8.286;2023-05-17T04:12:33;7.10;;;3.27;;
5460;SDS011;2753;49.196;8.286;2023-05-17T04:14:59;8.93;;;3.00;;
5460;SDS011;2753;49.196;8.286;2023-05-17T04:17:25;6.03;;;3.00;;
5460;SDS011;2753;49.196;8.286;2023-05-17T04:19:51;5.13;;;2.90;;
5460;SDS011;2753;49.196;8.286;2023-05-17T04:22:18;8.03;;;2.90;;
5460;SDS011;2753;49.196;8.286;2023-05-17T04:24:44;7.30;;;2.70;;
5460;SDS011;2753;49.196;8.286;2023-05-17T04:27:10;5.57;;;3.20;;
5460;SDS011;2753;49.196;8.286;2023-05-17T04:29:35;11.60;;;3.40;;
5460;SDS011;2753;49.196;8.286;2023-05-17T04:32:01;4.50;;;2.80;;
5460;SDS011;2753;49.196;8.286;2023-05-17T04:34:27;7.93;;;2.93;;
5460;SDS011;2753;49.196;8.286;2023-05-17T04:36:53;8.27;;;3.53;;
5460;SDS011;2753;49.196;8.286;2023-05-17T04:39:19;6.50;;;2.13;;
5460;SDS011;2753;49.196;8.286;2023-05-17T04:41:45;6.00;;;2.83;;
5460;SDS011;2753;49.196;8.286;2023-05-17T04:44:10;7.33;;;2.63;;
5460;SDS011;2753;49.196;8.286;2023-05-17T04:46:36;6.97;;;2.73;;
5460;SDS011;2753;49.196;8.286;2023-05-17T04:49:02;3.83;;;2.50;;
5460;SDS011;2753;49.196;8.286;2023-05-17T04:51:28;6.27;;;2.47;;
5460;SDS011;2753;49.196;8.286;2023-05-17T04:53:55;7.73;;;3.00;;
5460;SDS011;2753;49.196;8.286;2023-05-17T04:56:21;5.20;;;2.67;;
5460;SDS011;2753;49.196;8.286;2023-05-17T04:58:46;4.90;;;2.80;;
5460;SDS011;2753;49.196;8.286;2023-05-17T05:01:12;12.53;;;3.70;;
5460;SDS011;2753;49.196;8.286;2023-05-17T05:03:38;12.67;;;2.93;;
5460;SDS011;2753;49.196;8.286;2023-05-17T05:06:03;10.67;;;3.40;;
5460;SDS011;2753;49.196;8.286;2023-05-17T05:08:29;5.70;;;2.30;;
5460;SDS011;2753;49.196;8.286;2023-05-17T05:10:57;7.90;;;2.80;;
5460;SDS011;2753;49.196;8.286;2023-05-17T05:13:22;8.30;;;2.83;;
5460;SDS011;2753;49.196;8.286;2023-05-17T05:15:48;7.53;;;3.30;;
5460;SDS011;2753;49.196;8.286;2023-05-17T05:18:14;12.03;;;2.67;;
5460;SDS011;2753;49.196;8.286;2023-05-17T05:20:40;3.90;;;2.50;;
5460;SDS011;2753;49.196;8.286;2023-05-17T05:23:07;9.53;;;3.27;;
5460;SDS011;2753;49.196;8.286;2023-05-17T05:25:32;3.40;;;2.60;;
5460;SDS011;2753;49.196;8.286;2023-05-17T05:27:58;8.00;;;2.90;;
5460;SDS011;2753;49.196;8.286;2023-05-17T05:30:24;6.53;;;2.33;;
5460;SDS011;2753;49.196;8.286;2023-05-17T05:32:50;10.43;;;2.97;;
5460;SDS011;2753;49.196;8.286;2023-05-17T05:35:16;4.80;;;2.27;;
5460;SDS011;2753;49.196;8.286;2023-05-17T05:37:42;3.17;;;2.57;;
5460;SDS011;2753;49.196;8.286;2023-05-17T05:40:09;7.07;;;2.33;;
5460;SDS011;2753;49.196;8.286;2023-05-17T05:42:35;7.60;;;2.83;;
5460;SDS011;2753;49.196;8.286;2023-05-17T05:45:01;5.27;;;2.80;;
5460;SDS011;2753;49.196;8.286;2023-05-17T05:47:27;7.50;;;2.53;;
5460;SDS011;2753;49.196;8.286;2023-05-17T05:49:52;5.37;;;2.10;;
5460;SDS011;2753;49.196;8.286;2023-05-17T05:52:18;13.10;;;3.10;;
5460;SDS011;2753;49.196;8.286;2023-05-17T05:54:44;7.10;;;2.77;;
5460;SDS011;2753;49.196;8.286;2023-05-17T05:57:10;14.73;;;3.33;;
5460;SDS011;2753;49.196;8.286;2023-05-17T05:59:36;6.40;;;3.03;;
5460;SDS011;2753;49.196;8.286;2023-05-17T06:02:02;3.97;;;2.60;;
5460;SDS011;2753;49.196;8.286;2023-05-17T06:04:28;8.67;;;2.60;;
5460;SDS011;2753;49.196;8.286;2023-05-17T06:06:54;7.17;;;2.60;;
5460;SDS011;2753;49.196;8.286;2023-05-17T06:09:20;5.47;;;2.90;;
5460;SDS011;2753;49.196;8.286;2023-05-17T06:11:45;6.43;;;2.80;;
5460;SDS011;2753;49.196;8.286;2023-05-17T06:14:11;10.20;;;3.17;;
5460;SDS011;2753;49.196;8.286;2023-05-17T06:16:37;7.80;;;3.57;;
5460;SDS011;2753;49.196;8.286;2023-05-17T06:19:02;6.40;;;3.00;;
5460;SDS011;2753;49.196;8.286;2023-05-17T06:21:28;6.30;;;3.10;;
5460;SDS011;2753;49.196;8.286;2023-05-17T06:23:55;8.00;;;3.27;;
5460;SDS011;2753;49.196;8.286;2023-05-17T06:26:21;5.40;;;2.80;;
5460;SDS011;2753;49.196;8.286;2023-05-17T06:28:47;4.47;;;3.07;;
5460;SDS011;2753;49.196;8.286;2023-05-17T06:31:13;19.07;;;4.30;;
5460;SDS011;2753;49.196;8.286;2023-05-17T06:33:39;7.37;;;3.93;;
5460;SDS011;2753;49.196;8.286;2023-05-17T06:36:04;11.13;;;3.83;;
5460;SDS011;2753;49.196;8.286;2023-05-17T06:38:30;11.50;;;3.00;;
5460;SDS011;2753;49.196;8.286;2023-05-17T06:40:56;8.70;;;3.10;;
5460;SDS011;2753;49.196;8.286;2023-05-17T06:43:22;10.00;;;3.80;;
5460;SDS011;2753;49.196;8.286;2023-05-17T06:45:48;11.17;;;4.20;;
5460;SDS011;2753;49.196;8.286;2023-05-17T06:48:14;11.07;;;3.47;;
5460;SDS011;2753;49.196;8.286;2023-05-17T06:50:49;6.70;;;3.90;;
5460;SDS011;2753;49.196;8.286;2023-05-17T06:53:15;12.47;;;4.43;;
5460;SDS011;2753;49.196;8.286;2023-05-17T06:55:41;6.10;;;3.77;;
5460;SDS011;2753;49.196;8.286;2023-05-17T06:58:07;13.97;;;4.10;;
5460;SDS011;2753;49.196;8.286;2023-05-17T07:00:33;8.30;;;3.60;;
5460;SDS011;2753;49.196;8.286;2023-05-17T07:03:00;8.87;;;3.97;;
5460;SDS011;2753;49.196;8.286;2023-05-17T07:05:26;6.60;;;3.70;;
5460;SDS011;2753;49.196;8.286;2023-05-17T07:07:54;5.30;;;2.93;;
5460;SDS011;2753;49.196;8.286;2023-05-17T07:10:20;5.63;;;3.40;;
5460;SDS011;2753;49.196;8.286;2023-05-17T07:12:46;10.07;;;3.60;;
5460;SDS011;2753;49.196;8.286;2023-05-17T07:15:12;8.93;;;3.90;;
5460;SDS011;2753;49.196;8.286;2023-05-17T07:17:37;12.63;;;3.83;;
5460;SDS011;2753;49.196;8.286;2023-05-17T07:20:04;13.97;;;3.70;;
5460;SDS011;2753;49.196;8.286;2023-05-17T07:22:30;11.17;;;3.50;;
5460;SDS011;2753;49.196;8.286;2023-05-17T07:24:56;11.23;;;4.13;;
5460;SDS011;2753;49.196;8.286;2023-05-17T07:27:21;10.07;;;4.07;;
5460;SDS011;2753;49.196;8.286;2023-05-17T07:29:47;7.53;;;4.27;;
5460;SDS011;2753;49.196;8.286;2023-05-17T07:32:13;8.70;;;3.77;;
5460;SDS011;2753;49.196;8.286;2023-05-17T07:34:39;14.93;;;4.60;;
5460;SDS011;2753;49.196;8.286;2023-05-17T07:37:05;11.90;;;4.20;;
5460;SDS011;2753;49.196;8.286;2023-05-17T07:39:31;16.70;;;4.90;;
5460;SDS011;2753;49.196;8.286;2023-05-17T07:41:57;7.73;;;3.93;;
5460;SDS011;2753;49.196;8.286;2023-05-17T07:44:22;10.27;;;4.13;;
5460;SDS011;2753;49.196;8.286;2023-05-17T07:46:48;11.30;;;4.87;;
5460;SDS011;2753;49.196;8.286;2023-05-17T07:49:14;13.03;;;4.30;;
5460;SDS011;2753;49.196;8.286;2023-05-17T07:51:39;12.70;;;4.73;;
5460;SDS011;2753;49.196;8.286;2023-05-17T07:54:05;10.60;;;5.00;;
5460;SDS011;2753;49.196;8.286;2023-05-17T07:56:31;8.30;;;3.87;;
5460;SDS011;2753;49.196;8.286;2023-05-17T07:58:57;9.30;;;3.60;;
5460;SDS011;2753;49.196;8.286;2023-05-17T08:01:24;7.03;;;3.93;;
5460;SDS011;2753;49.196;8.286;2023-05-17T08:03:50;10.97;;;4.30;;
5460;SDS011;2753;49.196;8.286;2023-05-17T08:06:16;16.73;;;3.97;;
5460;SDS011;2753;49.196;8.286;2023-05-17T08:08:42;11.80;;;4.23;;
5460;SDS011;2753;49.196;8.286;2023-05-17T08:11:09;6.33;;;3.60;;
5460;SDS011;2753;49.196;8.286;2023-05-17T08:13:35;9.03;;;3.87;;
5460;SDS011;2753;49.196;8.286;2023-05-17T08:16:01;9.70;;;4.40;;
5460;SDS011;2753;49.196;8.286;2023-05-17T08:18:30;10.43;;;3.90;;
5460;SDS011;2753;49.196;8.286;2023-05-17T08:20:56;16.47;;;4.57;;
5460;SDS011;2753;49.196;8.286;2023-05-17T08:23:22;8.70;;;4.13;;
5460;SDS011;2753;49.196;8.286;2023-05-17T08:25:48;11.73;;;4.73;;
5460;SDS011;2753;49.196;8.286;2023-05-17T08:28:14;9.97;;;3.90;;
5460;SDS011;2753;49.196;8.286;2023-05-17T08:30:39;7.43;;;4.37;;
5460;SDS011;2753;49.196;8.286;2023-05-17T08:33:05;13.33;;;4.03;;
5460;SDS011;2753;49.196;8.286;2023-05-17T08:35:33;7.07;;;4.07;;
5460;SDS011;2753;49.196;8.286;2023-05-17T08:38:00;7.17;;;3.97;;
5460;SDS011;2753;49.196;8.286;2023-05-17T08:40:26;4.83;;;3.20;;
5460;SDS011;2753;49.196;8.286;2023-05-17T08:42:52;7.60;;;3.57;;
5460;SDS011;2753;49.196;8.286;2023-05-17T08:45:18;16.73;;;4.00;;
5460;SDS011;2753;49.196;8.286;2023-05-17T08:47:44;7.60;;;4.00;;
5460;SDS011;2753;49.196;8.286;2023-05-17T08:50:13;8.20;;;3.47;;
5460;SDS011;2753;49.196;8.286;2023-05-17T08:52:40;12.27;;;4.40;;
5460;SDS011;2753;49.196;8.286;2023-05-17T08:55:08;8.07;;;3.73;;
5460;SDS011;2753;49.196;8.286;2023-05-17T08:57:35;9.77;;;3.47;;
5460;SDS011;2753;49.196;8.286;2023-05-17T09:00:03;19.10;;;4.30;;
5460;SDS011;2753;49.196;8.286;2023-05-17T09:02:39;15.73;;;3.93;;
5460;SDS011;2753;49.196;8.286;2023-05-17T09:05:08;10.83;;;3.20;;
5460;SDS011;2753;49.196;8.286;2023-05-17T09:07:35;12.13;;;3.90;;
5460;SDS011;2753;49.196;8.286;2023-05-17T09:10:01;9.73;;;3.80;;
5460;SDS011;2753;49.196;8.286;2023-05-17T09:12:33;7.60;;;3.43;;
5460;SDS011;2753;49.196;8.286;2023-05-17T09:15:12;7.27;;;3.10;;
5460;SDS011;2753;49.196;8.286;2023-05-17T09:17:42;8.00;;;3.90;;
5460;SDS011;2753;49.196;8.286;2023-05-17T09:20:15;13.00;;;3.43;;
5460;SDS011;2753;49.196;8.286;2023-05-17T09:22:49;10.37;;;3.63;;
5460;SDS011;2753;49.196;8.286;2023-05-17T09:25:22;10.50;;;3.63;;
5460;SDS011;2753;49.196;8.286;2023-05-17T09:27:52;3.87;;;3.03;;
5460;SDS011;2753;49.196;8.286;2023-05-17T09:30:18;5.67;;;2.90;;
5460;SDS011;2753;49.196;8.286;2023-05-17T09:32:44;9.83;;;3.87;;
5460;SDS011;2753;49.196;8.286;2023-05-17T09:35:13;7.70;;;3.23;;
5460;SDS011;2753;49.196;8.286;2023-05-17T09:37:39;7.70;;;2.90;;
5460;SDS011;2753;49.196;8.286;2023-05-17T09:40:09;6.40;;;2.97;;
5460;SDS011;2753;49.196;8.286;2023-05-17T09:42:46;6.63;;;2.70;;
5460;SDS011;2753;49.196;8.286;2023-05-17T09:45:12;10.30;;;3.93;;
5460;SDS011;2753;49.196;8.286;2023-05-17T09:47:44;7.40;;;3.20;;
5460;SDS011;2753;49.196;8.286;2023-05-17T09:50:11;11.80;;;3.07;;
5460;SDS011;2753;49.196;8.286;2023-05-17T09:52:45;8.07;;;3.10;;
5460;SDS011;2753;49.196;8.286;2023-05-17T09:55:11;5.50;;;3.27;;
5460;SDS011;2753;49.196;8.286;2023-05-17T09:57:38;9.50;;;3.20;;
5460;SDS011;2753;49.196;8.286;2023-05-17T10:00:05;5.50;;;2.53;;
5460;SDS011;2753;49.196;8.286;2023-05-17T10:02:37;12.50;;;2.90;;
5460;SDS011;2753;49.196;8.286;2023-05-17T10:05:10;9.20;;;3.20;;
5460;SDS011;2753;49.196;8.286;2023-05-17T10:07:36;7.23;;;2.97;;
5460;SDS011;2753;49.196;8.286;2023-05-17T10:10:02;5.63;;;3.27;;
5460;SDS011;2753;49.196;8.286;2023-05-17T10:12:29;6.30;;;3.17;;
5460;SDS011;2753;49.196;8.286;2023-05-17T10:15:00;5.30;;;2.80;;
5460;SDS011;2753;49.196;8.286;2023-05-17T10:17:26;4.47;;;2.83;;
5460;SDS011;2753;49.196;8.286;2023-05-17T10:19:55;5.43;;;2.50;;
5460;SDS011;2753;49.196;8.286;2023-05-17T10:22:22;6.27;;;2.93;;
5460;SDS011;2753;49.196;8.286;2023-05-17T10:24:48;7.13;;;3.07;;
5460;SDS011;2753;49.196;8.286;2023-05-17T10:27:17;9.30;;;3.17;;
5460;SDS011;2753;49.196;8.286;2023-05-17T10:29:44;9.30;;;2.97;;
5460;SDS011;2753;49.196;8.286;2023-05-17T10:32:12;8.17;;;2.47;;
5460;SDS011;2753;49.196;8.286;2023-05-17T10:34:38;5.60;;;3.23;;
5460;SDS011;2753;49.196;8.286;2023-05-17T10:37:04;7.73;;;3.30;;
5460;SDS011;2753;49.196;8.286;2023-05-17T10:39:31;10.37;;;3.70;;
5460;SDS011;2753;49.196;8.286;2023-05-17T10:41:59;6.00;;;3.77;;
5460;SDS011;2753;49.196;8.286;2023-05-17T10:44:29;5.80;;;2.70;;
5460;SDS011;2753;49.196;8.286;2023-05-17T10:47:00;8.70;;;3.40;;
5460;SDS011;2753;49.196;8.286;2023-05-17T10:49:30;5.43;;;3.30;;
5460;SDS011;2753;49.196;8.286;2023-05-17T10:51:57;5.23;;;2.87;;
5460;SDS011;2753;49.196;8.286;2023-05-17T10:54:43;7.57;;;3.53;;
5460;SDS011;2753;49.196;8.286;2023-05-17T11:00:06;5.17;;;3.10;;
5460;SDS011;2753;49.196;8.286;2023-05-17T11:02:38;6.40;;;2.90;;
5460;SDS011;2753;49.196;8.286;2023-05-17T11:05:07;6.43;;;3.47;;
5460;SDS011;2753;49.196;8.286;2023-05-17T11:07:48;5.00;;;2.80;;
5460;SDS011;2753;49.196;8.286;2023-05-17T11:10:14;7.43;;;3.27;;
5460;SDS011;2753;49.196;8.286;2023-05-17T11:12:45;4.20;;;3.20;;
5460;SDS011;2753;49.196;8.286;2023-05-17T11:15:22;11.37;;;3.70;;
5460;SDS011;2753;49.196;8.286;2023-05-17T11:17:49;3.50;;;2.40;;
5460;SDS011;2753;49.196;8.286;2023-05-17T11:23:05;5.17;;;3.17;;
5460;SDS011;2753;49.196;8.286;2023-05-17T11:25:37;10.47;;;3.77;;
5460;SDS011;2753;49.196;8.286;2023-05-17T11:28:37;9.03;;;3.30;;
5460;SDS011;2753;49.196;8.286;2023-05-17T11:30:59;7.30;;;3.10;;
5460;SDS011;2753;49.196;8.286;2023-05-17T11:33:41;5.93;;;3.00;;
5460;SDS011;2753;49.196;8.286;2023-05-17T11:36:18;9.00;;;3.07;;
5460;SDS011;2753;49.196;8.286;2023-05-17T11:38:47;6.07;;;2.60;;
5460;SDS011;2753;49.196;8.286;2023-05-17T11:41:19;5.23;;;2.67;;
5460;SDS011;2753;49.196;8.286;2023-05-17T11:43:47;10.33;;;2.70;;
5460;SDS011;2753;49.196;8.286;2023-05-17T11:46:17;6.20;;;3.67;;
5460;SDS011;2753;49.196;8.286;2023-05-17T11:52:07;7.53;;;3.03;;
5460;SDS011;2753;49.196;8.286;2023-05-17T11:54:33;8.97;;;3.60;;
5460;SDS011;2753;49.196;8.286;2023-05-17T11:56:59;5.60;;;3.23;;
5460;SDS011;2753;49.196;8.286;2023-05-17T11:59:27;6.43;;;2.97;;
5460;SDS011;2753;49.196;8.286;2023-05-17T12:01:53;3.77;;;2.57;;
5460;SDS011;2753;49.196;8.286;2023-05-17T12:04:23;3.77;;;3.10;;
5460;SDS011;2753;49.196;8.286;2023-05-17T12:06:53;5.00;;;3.00;;
5460;SDS011;2753;49.196;8.286;2023-05-17T12:09:19;9.40;;;3.60;;
5460;SDS011;2753;49.196;8.286;2023-05-17T12:11:47;3.50;;;2.80;;
5460;SDS011;2753;49.196;8.286;2023-05-17T12:14:16;7.87;;;3.20;;
5460;SDS011;2753;49.196;8.286;2023-05-17T12:16:52;6.00;;;2.80;;
5460;SDS011;2753;49.196;8.286;2023-05-17T12:19:22;10.57;;;3.53;;
5460;SDS011;2753;49.196;8.286;2023-05-17T12:21:50;7.53;;;3.70;;
5460;SDS011;2753;49.196;8.286;2023-05-17T12:24:16;8.63;;;2.90;;
5460;SDS011;2753;49.196;8.286;2023-05-17T12:26:42;8.27;;;3.40;;
5460;SDS011;2753;49.196;8.286;2023-05-17T12:29:12;15.23;;;4.50;;
5460;SDS011;2753;49.196;8.286;2023-05-17T12:31:40;4.57;;;3.50;;
5460;SDS011;2753;49.196;8.286;2023-05-17T12:34:08;9.10;;;3.90;;
5460;SDS011;2753;49.196;8.286;2023-05-17T12:36:36;16.70;;;4.03;;
5460;SDS011;2753;49.196;8.286;2023-05-17T12:39:03;11.90;;;4.43;;
5460;SDS011;2753;49.196;8.286;2023-05-17T12:41:33;10.27;;;3.50;;
5460;SDS011;2753;49.196;8.286;2023-05-17T12:43:59;8.70;;;3.70;;
5460;SDS011;2753;49.196;8.286;2023-05-17T12:46:25;4.90;;;2.90;;
5460;SDS011;2753;49.196;8.286;2023-05-17T12:48:52;10.33;;;3.27;;
5460;SDS011;2753;49.196;8.286;2023-05-17T12:51:19;5.00;;;2.90;;
5460;SDS011;2753;49.196;8.286;2023-05-17T12:53:52;10.10;;;3.20;;
5460;SDS011;2753;49.196;8.286;2023-05-17T12:56:21;8.70;;;3.50;;
5460;SDS011;2753;49.196;8.286;2023-05-17T12:59:13;8.80;;;3.80;;
5460;SDS011;2753;49.196;8.286;2023-05-17T13:01:44;10.77;;;3.30;;
5460;SDS011;2753;49.196;8.286;2023-05-17T13:04:12;4.17;;;2.83;;
5460;SDS011;2753;49.196;8.286;2023-05-17T13:09:16;9.67;;;3.00;;
5460;SDS011;2753;49.196;8.286;2023-05-17T13:11:43;19.80;;;5.73;;
5460;SDS011;2753;49.196;8.286;2023-05-17T13:14:31;7.63;;;3.07;;
5460;SDS011;2753;49.196;8.286;2023-05-17T13:17:08;7.80;;;3.00;;
5460;SDS011;2753;49.196;8.286;2023-05-17T13:19:34;10.07;;;3.57;;
5460;SDS011;2753;49.196;8.286;2023-05-17T13:22:01;11.47;;;3.70;;
5460;SDS011;2753;49.196;8.286;2023-05-17T13:24:30;8.30;;;3.47;;
5460;SDS011;2753;49.196;8.286;2023-05-17T13:26:59;3.50;;;2.47;;
5460;SDS011;2753;49.196;8.286;2023-05-17T13:29:26;9.30;;;3.83;;
5460;SDS011;2753;49.196;8.286;2023-05-17T13:31:56;7.83;;;3.20;;
5460;SDS011;2753;49.196;8.286;2023-05-17T13:34:22;13.27;;;3.77;;
5460;SDS011;2753;49.196;8.286;2023-05-17T13:36:47;9.20;;;3.43;;
5460;SDS011;2753;49.196;8.286;2023-05-17T13:39:14;11.67;;;3.17;;
5460;SDS011;2753;49.196;8.286;2023-05-17T13:41:41;12.70;;;3.83;;
5460;SDS011;2753;49.196;8.286;2023-05-17T13:44:07;6.87;;;3.30;;
5460;SDS011;2753;49.196;8.286;2023-05-17T13:46:33;10.10;;;3.47;;
5460;SDS011;2753;49.196;8.286;2023-05-17T13:48:59;6.60;;;3.07;;
5460;SDS011;2753;49.196;8.286;2023-05-17T13:51:26;6.60;;;3.67;;
5460;SDS011;2753;49.196;8.286;2023-05-17T13:53:52;11.43;;;4.33;;
5460;SDS011;2753;49.196;8.286;2023-05-17T13:56:18;4.97;;;3.20;;
5460;SDS011;2753;49.196;8.286;2023-05-17T13:58:44;7.63;;;3.87;;
5460;SDS011;2753;49.196;8.286;2023-05-17T14:01:09;13.23;;;4.50;;
5460;SDS011;2753;49.196;8.286;2023-05-17T14:03:35;8.53;;;4.23;;
5460;SDS011;2753;49.196;8.286;2023-05-17T14:06:02;9.27;;;3.47;;
5460;SDS011;2753;49.196;8.286;2023-05-17T14:08:28;9.43;;;3.07;;
5460;SDS011;2753;49.196;8.286;2023-05-17T14:10:54;7.23;;;3.47;;
5460;SDS011;2753;49.196;8.286;2023-05-17T14:13:20;14.10;;;3.47;;
5460;SDS011;2753;49.196;8.286;2023-05-17T14:15:46;5.53;;;3.37;;
5460;SDS011;2753;49.196;8.286;2023-05-17T14:18:12;4.33;;;2.93;;
5460;SDS011;2753;49.196;8.286;2023-05-17T14:20:37;7.23;;;3.97;;
5460;SDS011;2753;49.196;8.286;2023-05-17T14:23:03;6.60;;;3.17;;
5460;SDS011;2753;49.196;8.286;2023-05-17T14:25:30;10.33;;;4.30;;
5460;SDS011;2753;49.196;8.286;2023-05-17T14:27:56;6.57;;;3.40;;
5460;SDS011;2753;49.196;8.286;2023-05-17T14:30:22;8.80;;;3.00;;
5460;SDS011;2753;49.196;8.286;2023-05-17T14:32:48;8.93;;;3.03;;
5460;SDS011;2753;49.196;8.286;2023-05-17T14:35:14;7.93;;;3.40;;
5460;SDS011;2753;49.196;8.286;2023-05-17T14:37:41;7.80;;;3.70;;
5460;SDS011;2753;49.196;8.286;2023-05-17T14:40:07;8.67;;;3.70;;
5460;SDS011;2753;49.196;8.286;2023-05-17T14:42:33;10.13;;;3.40;;
5460;SDS011;2753;49.196;8.286;2023-05-17T14:44:59;11.33;;;3.00;;
5460;SDS011;2753;49.196;8.286;2023-05-17T14:47:25;14.00;;;2.83;;
5460;SDS011;2753;49.196;8.286;2023-05-17T14:49:51;9.13;;;3.30;;
5460;SDS011;2753;49.196;8.286;2023-05-17T14:52:17;8.20;;;3.00;;
5460;SDS011;2753;49.196;8.286;2023-05-17T14:54:44;6.20;;;3.40;;
5460;SDS011;2753;49.196;8.286;2023-05-17T14:57:10;6.50;;;3.20;;
5460;SDS011;2753;49.196;8.286;2023-05-17T14:59:36;5.77;;;2.90;;
5460;SDS011;2753;49.196;8.286;2023-05-17T15:02:03;9.37;;;3.00;;
5460;SDS011;2753;49.196;8.286;2023-05-17T15:04:29;6.80;;;2.87;;
5460;SDS011;2753;49.196;8.286;2023-05-17T15:06:55;11.87;;;3.17;;
5460;SDS011;2753;49.196;8.286;2023-05-17T15:09:22;9.23;;;2.87;;
5460;SDS011;2753;49.196;8.286;2023-05-17T15:11:48;6.57;;;3.27;;
5460;SDS011;2753;49.196;8.286;2023-05-17T15:14:14;13.03;;;5.50;;
5460;SDS011;2753;49.196;8.286;2023-05-17T15:16:48;9.83;;;3.07;;
5460;SDS011;2753;49.196;8.286;2023-05-17T15:19:14;7.43;;;3.03;;
5460;SDS011;2753;49.196;8.286;2023-05-17T15:21:40;10.03;;;3.30;;
5460;SDS011;2753;49.196;8.286;2023-05-17T15:24:06;7.93;;;2.80;;
5460;SDS011;2753;49.196;8.286;2023-05-17T15:26:33;6.20;;;3.17;;
5460;SDS011;2753;49.196;8.286;2023-05-17T15:28:58;5.63;;;2.93;;
5460;SDS011;2753;49.196;8.286;2023-05-17T15:31:24;8.27;;;3.30;;
5460;SDS011;2753;49.196;8.286;2023-05-17T15:33:52;12.63;;;3.23;;
5460;SDS011;2753;49.196;8.286;2023-05-17T15:36:18;12.67;;;2.93;;